Time;durP1;ratioP1;P1;durP2;ratioP2;P2;SDS_P1;SDS_P2;PMS_P1;PMS_P2;Temp;Humidity;BMP_temperature;BMP_pressure;BME280_temperature;BME280_humidity;BME280_pressure;Samples;Min_cycle;Max_cycle;Signal;HPM_P1;HPM_P2
2023/04/28 00:00:29;;;;;;;4.82;2.33;;;;;;;;;;469068;29;1693;-71
2023/04/28 00:01:08;;;;;;;4.80;2.60;;;;;;;;;;466592;29;2218;-70
2023/04/28 00:01:30;;;;;;;5.60;2.50;;;;;;;;;;472429;29;1257;-71
2023/04/28 00:01:56;;;;;;;4.72;2.72;;;;;;;;;;475466;29;1213;-72
2023/04/28 00:02:41;;;;;;;4.82;2.55;;;;;;;;;;467702;29;1763;-71
2023/04/28 00:03:02;;;;;;;4.78;2.55;;;;;;;;;;475120;29;1521;-71
2023/04/28 00:03:41;;;;;;;5.15;2.55;;;;;;;;;;473921;29;1293;-71
2023/04/28 00:04:16;;;;;;;;;;;;;;;;;;;;;
2023/04/28 00:04:35;;;;;;;5.90;2.50;;;;;;;;;;468183;29;1208;-71
2023/04/28 00:06:24;;;;;;;;;;;;;;;;;;;;;
2023/04/28 00:06:41;;;;;;;5.15;2.50;;;;;;;;;;470852;29;2177;-71
2023/04/28 00:08:51;;;;;;;4.40;2.50;;;;;;;;;;469450;29;1155;-71
2023/04/28 00:09:10;;;;;;;3.53;2.40;;;;;;;;;;466315;30;1392;-71
2023/04/28 00:09:36;;;;;;;4.10;2.35;;;;;;;;;;468548;30;1258;-70
2023/04/28 00:10:09;;;;;;;4.22;2.38;;;;;;;;;;470959;30;1377;-71
2023/04/28 00:11:09;;;;;;;6.95;2.78;;;;;;;;;;475182;29;2249;-72
2023/04/28 00:11:46;;;;;;;5.45;2.80;;;;;;;;;;477398;29;1255;-71
2023/04/28 00:12:05;;;;;;;5.35;2.83;;;;;;;;;;472442;29;1497;-72
2023/04/28 00:12:25;;;;;;;5.82;2.85;;;;;;;;;;478425;29;1228;-71
2023/04/28 00:12:50;;;;;;;5.53;2.78;;;;;;;;;;473695;29;1466;-71
2023/04/28 00:13:08;;;;;;;6.45;2.85;;;;;;;;;;472949;29;1131;-72
2023/04/28 00:13:27;;;;;;;6.05;2.70;;;;;;;;;;478180;29;1393;-71
2023/04/28 00:14:00;;;;;;;6.28;2.80;;;;;;;;;;471609;29;1237;-71
2023/04/28 00:14:16;;;;;;;5.55;2.90;;;;;;;;;;478750;29;1384;-71
2023/04/28 00:14:32;;;;;;;5.97;2.88;;;;;;;;;;476384;29;1105;-71
2023/04/28 00:15:38;;;;;;;5.68;2.83;;;;;;;;;;472788;29;1837;-71
2023/04/28 00:15:55;;;;;;;4.40;2.60;;;;;;;;;;470381;29;1349;-71
2023/04/28 00:16:10;;;;;;;4.40;2.85;;;;;;;;;;477169;29;1290;-72
2023/04/28 00:17:16;;;;;;;5.68;2.90;;;;;;;;;;475638;29;1458;-72
2023/04/28 00:17:40;;;;;;;5.65;2.78;;;;;;;;;;464663;29;1958;-70
2023/04/28 00:18:01;;;;;;;5.70;2.75;;;;;;;;;;474780;29;1241;-70
2023/04/28 00:18:27;;;;;;;5.35;2.85;;;;;;;;;;477601;29;1223;-70
2023/04/28 00:18:47;;;;;;;6.05;2.83;;;;;;;;;;470860;29;1156;-70
2023/04/28 00:19:06;;;;;;;5.43;2.63;;;;;;;;;;472285;29;1316;-70
2023/04/28 00:20:43;;;;;;;5.25;2.70;;;;;;;;;;473337;29;1214;-70
2023/04/28 00:20:54;;;;;;;5.40;2.85;;;;;;;;;;470680;29;1277;-71
2023/04/28 00:21:10;;;;;;;5.43;2.88;;;;;;;;;;479593;29;1623;-71
2023/04/28 00:21:30;;;;;;;6.88;2.90;;;;;;;;;;471837;29;1357;-71
2023/04/28 00:22:14;;;;;;;6.10;2.63;;;;;;;;;;478362;29;1250;-72
2023/04/28 00:22:54;;;;;;;;;;;;;;;;;;;;;
2023/04/28 00:23:19;;;;;;;7.47;3.00;;;;;;;;;;477254;29;1206;-70
2023/04/28 00:23:50;;;;;;;7.63;2.80;;;;;;;;;;469261;29;1698;-70
2023/04/28 00:25:51;;;;;;;5.82;2.90;;;;;;;;;;471239;29;1198;-71
2023/04/28 00:26:07;;;;;;;4.90;2.70;;;;;;;;;;465140;30;1397;-72
2023/04/28 00:26:23;;;;;;;5.27;2.70;;;;;;;;;;462709;30;1915;-72
2023/04/28 00:26:39;;;;;;;4.60;2.60;;;;;;;;;;461861;30;1092;-71
2023/04/28 00:27:03;;;;;;;4.07;2.70;;;;;;;;;;464344;30;1195;-72
2023/04/28 00:27:30;;;;;;;5.15;2.88;;;;;;;;;;472263;30;1381;-71
2023/04/28 00:28:39;;;;;;;6.57;2.88;;;;;;;;;;471453;29;1317;-73
2023/04/28 00:29:01;;;;;;;6.93;3.25;;;;;;;;;;474206;29;1233;-71
2023/04/28 00:29:45;;;;;;;;;;;;;;;;;;;;;
2023/04/28 00:30:17;;;;;;;5.25;2.88;;;;;;;;;;470658;29;1171;-70
2023/04/28 00:30:43;;;;;;;;;;;;;;;;;;;;;
2023/04/28 00:30:59;;;;;;;6.15;3.30;;;;;;;;;;466444;29;995;-71
2023/04/28 00:31:29;;;;;;;5.38;2.92;;;;;;;;;;475498;29;1324;-69
2023/04/28 00:31:45;;;;;;;4.15;2.65;;;;;;;;;;473482;29;1402;-71
2023/04/28 00:32:02;;;;;;;4.65;2.80;;;;;;;;;;471330;29;1387;-71
2023/04/28 00:32:21;;;;;;;4.72;2.60;;;;;;;;;;478636;29;1095;-70
2023/04/28 00:32:40;;;;;;;5.22;2.88;;;;;;;;;;474394;29;1276;-70
2023/04/28 00:32:57;;;;;;;5.80;3.17;;;;;;;;;;474246;29;1124;-71
2023/04/28 00:33:20;;;;;;;5.82;3.22;;;;;;;;;;475382;29;995;-72
2023/04/28 00:34:14;;;;;;;5.15;3.00;;;;;;;;;;464547;30;1111;-70
2023/04/28 00:34:32;;;;;;;4.75;2.80;;;;;;;;;;475193;29;1120;-71
2023/04/28 00:35:04;;;;;;;6.50;3.08;;;;;;;;;;464395;29;1360;-72
2023/04/28 00:35:40;;;;;;;;;;;;;;;;;;;;;
2023/04/28 00:36:06;;;;;;;6.63;2.88;;;;;;;;;;479516;29;1391;-71
2023/04/28 00:36:53;;;;;;;;;;;;;;;;;;;;;
2023/04/28 00:38:03;;;;;;;4.80;2.60;;;;;;;;;;485293;29;1423;-71
2023/04/28 00:38:55;;;;;;;;;;;;;;;;;;;;;
2023/04/28 00:40:02;;;;;;;5.38;2.80;;;;;;;;;;491481;29;1179;-72
2023/04/28 00:40:56;;;;;;;4.57;2.88;;;;;;;;;;489503;29;1236;-71
2023/04/28 00:41:57;;;;;;;6.35;3.35;;;;;;;;;;475865;29;1455;-71
2023/04/28 00:42:03;;;;;;;6.57;3.20;;;;;;;;;;479244;29;1180;-70
2023/04/28 00:42:48;;;;;;;4.57;3.03;;;;;;;;;;484985;29;1402;-72
2023/04/28 00:43:05;;;;;;;5.40;2.90;;;;;;;;;;482191;28;1274;-72
2023/04/28 00:43:21;;;;;;;5.90;3.08;;;;;;;;;;490235;29;1208;-71
2023/04/28 00:43:52;;;;;;;5.03;3.03;;;;;;;;;;479261;29;1876;-72
2023/04/28 00:44:30;;;;;;;5.97;3.00;;;;;;;;;;480702;29;1307;-71
2023/04/28 00:45:06;;;;;;;5.63;3.28;;;;;;;;;;480879;29;1278;-72
2023/04/28 00:45:35;;;;;;;;;;;;;;;;;;;;;
2023/04/28 00:46:15;;;;;;;4.28;2.70;;;;;;;;;;484285;29;1015;-72
2023/04/28 00:46:37;;;;;;;7.50;3.25;;;;;;;;;;483914;29;1413;-70
2023/04/28 00:47:34;;;;;;;4.43;3.08;;;;;;;;;;478280;29;1206;-70
2023/04/28 00:47:36;;;;;;;6.72;3.25;;;;;;;;;;480527;29;1137;-70
2023/04/28 00:47:55;;;;;;;4.88;3.03;;;;;;;;;;483368;29;2059;-70
2023/04/28 00:48:23;;;;;;;4.82;3.08;;;;;;;;;;479201;29;1205;-71
2023/04/28 00:49:02;;;;;;;3.63;2.63;;;;;;;;;;477148;29;1192;-71
2023/04/28 00:49:27;;;;;;;4.32;2.80;;;;;;;;;;486052;29;1220;-71
2023/04/28 00:49:54;;;;;;;5.07;3.03;;;;;;;;;;479689;29;1176;-72
2023/04/28 00:50:16;;;;;;;3.90;2.58;;;;;;;;;;486443;29;1316;-72
2023/04/28 00:51:05;;;;;;;;;;;;;;;;;;;;;
2023/04/28 00:51:26;;;;;;;4.90;2.72;;;;;;;;;;480441;29;1822;-71
2023/04/28 00:52:05;;;;;;;5.30;2.60;;;;;;;;;;484692;29;1405;-71
2023/04/28 00:52:21;;;;;;;5.03;3.28;;;;;;;;;;492072;28;1235;-71
2023/04/28 00:52:59;;;;;;;5.13;3.03;;;;;;;;;;481682;29;1381;-71
2023/04/28 00:53:16;;;;;;;3.40;2.80;;;;;;;;;;486212;29;1108;-71
2023/04/28 00:53:33;;;;;;;3.85;2.80;;;;;;;;;;475825;29;1125;-72
2023/04/28 00:54:15;;;;;;;5.15;2.80;;;;;;;;;;476314;29;1164;-70
2023/04/28 00:54:36;;;;;;;3.55;3.00;;;;;;;;;;482349;29;1084;-71
2023/04/28 00:56:44;;;;;;;4.50;3.00;;;;;;;;;;479118;29;1515;-71
2023/04/28 00:57:13;;;;;;;;;;;;;;;;;;;;;
2023/04/28 00:57:58;;;;;;;6.55;3.20;;;;;;;;;;480514;28;1191;-70
2023/04/28 00:58:40;;;;;;;4.03;3.00;;;;;;;;;;476153;29;1345;-71
2023/04/28 00:59:17;;;;;;;4.93;2.97;;;;;;;;;;475888;29;1385;-72
2023/04/28 00:59:37;;;;;;;5.18;3.17;;;;;;;;;;486739;29;1189;-71
2023/04/28 01:00:51;;;;;;;6.30;3.30;;;;;;;;;;482595;29;1334;-71
2023/04/28 01:01:35;;;;;;;5.95;3.20;;;;;;;;;;480747;28;1150;-70
2023/04/28 01:01:55;;;;;;;3.95;3.00;;;;;;;;;;494334;28;1226;-70
2023/04/28 01:02:49;;;;;;;4.78;3.00;;;;;;;;;;486373;28;1168;-70
2023/04/28 01:03:36;;;;;;;;;;;;;;;;;;;;;
2023/04/28 01:04:03;;;;;;;4.97;3.10;;;;;;;;;;502330;28;1505;-71
2023/04/28 01:04:22;;;;;;;6.05;3.47;;;;;;;;;;504246;28;1158;-72
2023/04/28 01:04:55;;;;;;;5.70;3.45;;;;;;;;;;505857;28;1368;-71
2023/04/28 01:05:15;;;;;;;4.60;2.85;;;;;;;;;;499964;28;1147;-71
2023/04/28 01:05:35;;;;;;;4.93;2.88;;;;;;;;;;498507;28;1377;-71
2023/04/28 01:06:06;;;;;;;5.57;3.17;;;;;;;;;;498971;28;1186;-71
2023/04/28 01:06:48;;;;;;;6.10;3.30;;;;;;;;;;494626;28;1181;-71
2023/04/28 01:07:56;;;;;;;5.03;3.13;;;;;;;;;;487213;28;1607;-71
2023/04/28 01:08:33;;;;;;;4.63;3.08;;;;;;;;;;493172;28;1172;-71
2023/04/28 01:08:56;;;;;;;5.70;3.23;;;;;;;;;;500619;28;1237;-70
2023/04/28 01:09:45;;;;;;;5.03;3.13;;;;;;;;;;504670;28;1259;-72
2023/04/28 01:10:02;;;;;;;4.82;3.00;;;;;;;;;;495702;28;1286;-70
2023/04/28 01:10:57;;;;;;;;;;;;;;;;;;;;;
2023/04/28 01:11:16;;;;;;;3.95;2.90;;;;;;;;;;494052;28;1182;-71
2023/04/28 01:12:54;;;;;;;5.53;3.30;;;;;;;;;;495551;28;1017;-71
2023/04/28 01:13:40;;;;;;;4.68;3.10;;;;;;;;;;497421;28;1217;-72
2023/04/28 01:14:38;;;;;;;5.40;3.42;;;;;;;;;;482107;28;1393;-71
2023/04/28 01:15:15;;;;;;;5.95;3.53;;;;;;;;;;470508;29;1451;-71
2023/04/28 01:16:22;;;;;;;5.15;3.42;;;;;;;;;;485189;29;1166;-72
2023/04/28 01:16:29;;;;;;;5.45;3.40;;;;;;;;;;479045;29;1894;-72
2023/04/28 01:16:55;;;;;;;5.15;3.30;;;;;;;;;;480383;29;1617;-72
2023/04/28 01:17:59;;;;;;;5.65;3.53;;;;;;;;;;489230;28;1395;-73
2023/04/28 01:18:42;;;;;;;5.97;3.70;;;;;;;;;;486200;29;1199;-71
2023/04/28 01:19:22;;;;;;;5.45;3.67;;;;;;;;;;483587;28;1356;-70
2023/04/28 01:19:51;;;;;;;5.70;3.75;;;;;;;;;;478176;29;1375;-72
2023/04/28 01:20:43;;;;;;;6.07;3.65;;;;;;;;;;490870;28;1282;-73
2023/04/28 01:22:29;;;;;;;5.10;3.70;;;;;;;;;;482872;29;1443;-71
2023/04/28 01:24:05;;;;;;;7.78;4.22;;;;;;;;;;468442;30;1446;-72
2023/04/28 01:24:21;;;;;;;7.95;3.92;;;;;;;;;;476293;29;1975;-71
2023/04/28 01:24:59;;;;;;;9.38;4.00;;;;;;;;;;464561;29;2077;-70
2023/04/28 01:25:47;;;;;;;7.30;3.78;;;;;;;;;;482144;29;1439;-71
2023/04/28 01:26:06;;;;;;;7.53;3.83;;;;;;;;;;476865;29;1204;-71
2023/04/28 01:26:25;;;;;;;8.35;3.85;;;;;;;;;;474653;29;1571;-70
2023/04/28 01:27:01;;;;;;;8.68;3.90;;;;;;;;;;473772;29;1291;-70
2023/04/28 01:27:30;;;;;;;7.30;3.80;;;;;;;;;;481331;29;1228;-71
2023/04/28 01:30:01;;;;;;;6.28;3.70;;;;;;;;;;471076;29;1302;-71
2023/04/28 01:30:21;;;;;;;6.57;4.00;;;;;;;;;;478679;29;1419;-71
2023/04/28 01:30:42;;;;;;;5.78;3.75;;;;;;;;;;465684;29;1232;-73
2023/04/28 01:31:08;;;;;;;;;;;;;;;;;;;;;
2023/04/28 01:31:25;;;;;;;6.88;3.70;;;;;;;;;;480250;29;1188;-70
2023/04/28 01:31:50;;;;;;;7.57;3.60;;;;;;;;;;470904;29;1206;-71
2023/04/28 01:32:06;;;;;;;5.72;3.53;;;;;;;;;;471603;29;1309;-71
2023/04/28 01:33:08;;;;;;;5.22;3.50;;;;;;;;;;476692;29;1388;-70
2023/04/28 01:33:50;;;;;;;6.93;3.85;;;;;;;;;;478665;29;1267;-71
2023/04/28 01:34:35;;;;;;;4.65;3.65;;;;;;;;;;474388;29;1838;-71
2023/04/28 01:35:04;;;;;;;5.22;3.60;;;;;;;;;;466453;29;1288;-70
2023/04/28 01:35:20;;;;;;;7.15;3.90;;;;;;;;;;471639;29;1285;-71
2023/04/28 01:35:39;;;;;;;6.30;3.97;;;;;;;;;;470722;29;1340;-72
2023/04/28 01:36:10;;;;;;;6.60;4.22;;;;;;;;;;480607;29;1193;-71
2023/04/28 01:36:37;;;;;;;;;;;;;;;;;;;;;
2023/04/28 01:37:30;;;;;;;;;;;;;;;;;;;;;
2023/04/28 01:37:45;;;;;;;7.20;3.78;;;;;;;;;;473863;29;1545;-71
2023/04/28 01:38:53;;;;;;;7.30;3.92;;;;;;;;;;470663;29;1258;-71
2023/04/28 01:39:06;;;;;;;;;;;;;;;;;;;;;
2023/04/28 01:39:52;;;;;;;6.15;3.60;;;;;;;;;;481797;29;1122;-70
2023/04/28 01:40:24;;;;;;;6.75;4.00;;;;;;;;;;477676;29;1953;-71
2023/04/28 01:40:50;;;;;;;;;;;;;;;;;;;;;
2023/04/28 01:41:15;;;;;;;6.72;3.80;;;;;;;;;;476226;29;1209;-71
2023/04/28 01:41:55;;;;;;;6.90;3.80;;;;;;;;;;463918;29;1125;-70
2023/04/28 01:42:56;;;;;;;6.05;3.47;;;;;;;;;;474072;29;1211;-71
2023/04/28 01:43:39;;;;;;;5.13;3.65;;;;;;;;;;473587;29;1224;-72
2023/04/28 01:44:07;;;;;;;8.18;3.75;;;;;;;;;;474059;29;1312;-71
2023/04/28 01:44:23;;;;;;;6.85;4.00;;;;;;;;;;477474;29;1685;-71
2023/04/28 01:45:08;;;;;;;6.63;3.75;;;;;;;;;;474077;29;1278;-71
2023/04/28 01:45:28;;;;;;;4.82;3.67;;;;;;;;;;470191;29;1236;-72
2023/04/28 01:45:44;;;;;;;6.05;3.92;;;;;;;;;;481415;29;1291;-71
2023/04/28 01:46:40;;;;;;;7.07;3.90;;;;;;;;;;472246;29;1324;-70
2023/04/28 01:46:59;;;;;;;6.30;3.75;;;;;;;;;;462156;29;1310;-71
2023/04/28 01:49:22;;;;;;;6.15;3.63;;;;;;;;;;475960;29;2004;-70
2023/04/28 01:51:37;;;;;;;4.78;3.50;;;;;;;;;;467335;29;1283;-71
2023/04/28 01:51:52;;;;;;;6.32;3.78;;;;;;;;;;473929;29;1309;-71
2023/04/28 01:52:31;;;;;;;5.03;3.72;;;;;;;;;;467922;29;1291;-70
2023/04/28 01:53:02;;;;;;;6.00;3.87;;;;;;;;;;475884;29;1318;-70
2023/04/28 01:53:42;;;;;;;;;;;;;;;;;;;;;
2023/04/28 01:53:59;;;;;;;6.95;4.00;;;;;;;;;;472976;29;1185;-71
2023/04/28 01:54:15;;;;;;;5.43;3.67;;;;;;;;;;482142;29;1296;-69
2023/04/28 01:54:34;;;;;;;4.30;3.28;;;;;;;;;;476143;29;1170;-70
2023/04/28 01:54:54;;;;;;;4.70;3.20;;;;;;;;;;479403;29;1943;-71
2023/04/28 01:55:12;;;;;;;4.65;3.40;;;;;;;;;;484106;29;1070;-70
2023/04/28 01:55:47;;;;;;;;;;;;;;;;;;;;;
2023/04/28 01:56:04;;;;;;;5.82;3.45;;;;;;;;;;482175;29;1222;-70
2023/04/28 01:56:29;;;;;;;6.70;3.60;;;;;;;;;;485936;29;1357;-70
2023/04/28 01:56:54;;;;;;;6.28;3.70;;;;;;;;;;475354;29;1251;-70
2023/04/28 01:57:13;;;;;;;7.25;3.63;;;;;;;;;;482455;29;1093;-70
2023/04/28 01:57:41;;;;;;;6.68;3.72;;;;;;;;;;483438;29;1238;-71
2023/04/28 01:58:09;;;;;;;5.03;3.50;;;;;;;;;;477278;29;1455;-70
2023/04/28 01:58:40;;;;;;;6.15;3.63;;;;;;;;;;475762;29;1249;-70
2023/04/28 01:59:19;;;;;;;5.55;3.30;;;;;;;;;;485877;29;1227;-70
2023/04/28 01:59:39;;;;;;;5.70;3.53;;;;;;;;;;470204;29;1222;-70
2023/04/28 02:00:01;;;;;;;5.80;3.50;;;;;;;;;;475313;29;1374;-69
2023/04/28 02:01:46;;;;;;;5.57;3.67;;;;;;;;;;485888;29;881;-71
2023/04/28 02:02:02;;;;;;;4.82;3.55;;;;;;;;;;483820;29;1351;-72
2023/04/28 02:02:57;;;;;;;4.68;3.45;;;;;;;;;;486474;29;1244;-71
2023/04/28 02:03:19;;;;;;;5.40;3.60;;;;;;;;;;489702;29;1771;-71
2023/04/28 02:03:54;;;;;;;4.47;3.40;;;;;;;;;;476107;29;1100;-70
2023/04/28 02:04:13;;;;;;;4.13;3.45;;;;;;;;;;487893;29;1354;-74
2023/04/28 02:04:29;;;;;;;4.40;3.40;;;;;;;;;;480599;29;1251;-71
2023/04/28 02:05:11;;;;;;;5.03;3.88;;;;;;;;;;473251;29;1119;-71
2023/04/28 02:05:27;;;;;;;5.65;3.60;;;;;;;;;;475874;29;1318;-72
2023/04/28 02:06:06;;;;;;;;;;;;;;;;;;;;;
2023/04/28 02:06:40;;;;;;;6.55;3.50;;;;;;;;;;483192;29;1082;-71
2023/04/28 02:06:59;;;;;;;5.50;3.58;;;;;;;;;;478588;28;1310;-72
2023/04/28 02:07:41;;;;;;;5.90;4.03;;;;;;;;;;485403;28;1270;-72
2023/04/28 02:08:01;;;;;;;6.50;4.00;;;;;;;;;;484513;29;1928;-71
2023/04/28 02:08:32;;;;;;;;;;;;;;;;;;;;;
2023/04/28 02:09:18;;;;;;;5.78;3.72;;;;;;;;;;479240;29;1227;-73
2023/04/28 02:09:36;;;;;;;5.85;3.97;;;;;;;;;;469875;29;1128;-71
2023/04/28 02:11:37;;;;;;;6.30;3.60;;;;;;;;;;481023;29;1164;-71
2023/04/28 02:12:29;;;;;;;6.05;3.95;;;;;;;;;;482510;28;1361;-72
2023/04/28 02:12:46;;;;;;;6.13;3.92;;;;;;;;;;487809;28;1680;-71
2023/04/28 02:13:05;;;;;;;7.22;4.00;;;;;;;;;;490100;28;1171;-71
2023/04/28 02:13:21;;;;;;;8.27;3.92;;;;;;;;;;490037;28;1213;-72
2023/04/28 02:13:57;;;;;;;;;;;;;;;;;;;;;
2023/04/28 02:14:17;;;;;;;4.39;3.31;;;;;;;;;;165375;28;10002178;-71
2023/04/28 02:14:39;;;;;;;4.22;3.40;;;;;;;;;;485833;28;1622;-71
2023/04/28 02:15:02;;;;;;;4.47;3.50;;;;;;;;;;478542;28;1269;-71
2023/04/28 02:15:29;;;;;;;4.72;3.60;;;;;;;;;;485264;28;1066;-71
2023/04/28 02:16:25;;;;;;;5.30;3.60;;;;;;;;;;492438;28;1142;-70
2023/04/28 02:17:16;;;;;;;6.10;3.78;;;;;;;;;;492458;28;1366;-71
2023/04/28 02:17:32;;;;;;;6.60;3.53;;;;;;;;;;486481;28;1488;-71
2023/04/28 02:17:56;;;;;;;7.43;3.78;;;;;;;;;;480745;28;1260;-70
2023/04/28 02:18:15;;;;;;;6.03;3.67;;;;;;;;;;482530;28;1146;-71
2023/04/28 02:18:35;;;;;;;5.32;3.67;;;;;;;;;;488852;28;1091;-71
2023/04/28 02:18:53;;;;;;;4.95;3.75;;;;;;;;;;481319;28;1178;-71
2023/04/28 02:19:28;;;;;;;4.80;3.58;;;;;;;;;;491663;28;1091;-71
2023/04/28 02:20:18;;;;;;;;;;;;;;;;;;;;;
2023/04/28 02:20:31;;;;;;;4.97;3.30;;;;;;;;;;486731;28;1267;-70
2023/04/28 02:21:10;;;;;;;;;;;;;;;;;;;;;
2023/04/28 02:21:26;;;;;;;4.63;3.40;;;;;;;;;;488016;28;1113;-70
2023/04/28 02:21:55;;;;;;;5.78;3.60;;;;;;;;;;478523;28;1094;-70
2023/04/28 02:22:14;;;;;;;5.47;3.70;;;;;;;;;;489174;28;1316;-70
2023/04/28 02:23:49;;;;;;;;;;;;;;;;;;;;;
2023/04/28 02:24:07;;;;;;;6.50;3.92;;;;;;;;;;481070;28;1309;-70
2023/04/28 02:24:48;;;;;;;7.13;4.22;;;;;;;;;;493638;28;1359;-70
2023/04/28 02:25:27;;;;;;;5.68;3.72;;;;;;;;;;485578;28;1385;-70
2023/04/28 02:26:07;;;;;;;5.38;3.92;;;;;;;;;;486222;28;1689;-70
2023/04/28 02:27:17;;;;;;;6.15;4.10;;;;;;;;;;480582;29;1400;-70
2023/04/28 02:27:23;;;;;;;5.20;3.70;;;;;;;;;;483027;29;1327;-70
2023/04/28 02:28:05;;;;;;;5.47;3.83;;;;;;;;;;482873;28;1534;-70
2023/04/28 02:28:46;;;;;;;6.70;3.85;;;;;;;;;;485947;28;1363;-70
2023/04/28 02:29:20;;;;;;;5.13;3.63;;;;;;;;;;481605;28;1231;-70
2023/04/28 02:30:20;;;;;;;4.25;3.50;;;;;;;;;;480947;28;1471;-70
2023/04/28 02:31:04;;;;;;;5.78;3.63;;;;;;;;;;484173;28;1281;-70
2023/04/28 02:31:34;;;;;;;;;;;;;;;;;;;;;
2023/04/28 02:31:50;;;;;;;6.90;3.92;;;;;;;;;;483878;28;1230;-71
2023/04/28 02:32:33;;;;;;;5.60;4.05;;;;;;;;;;485983;28;1213;-73
2023/04/28 02:32:51;;;;;;;6.80;3.80;;;;;;;;;;488525;28;1179;-71
2023/04/28 02:33:33;;;;;;;6.70;3.78;;;;;;;;;;490925;28;1440;-72
2023/04/28 02:34:10;;;;;;;6.78;4.00;;;;;;;;;;489118;28;1270;-71
2023/04/28 02:35:41;;;;;;;6.25;3.80;;;;;;;;;;479207;29;1286;-72
2023/04/28 02:36:01;;;;;;;5.80;3.75;;;;;;;;;;479421;29;1215;-72
2023/04/28 02:36:39;;;;;;;7.07;3.97;;;;;;;;;;483927;29;1302;-71
2023/04/28 02:37:51;;;;;;;5.95;3.53;;;;;;;;;;475091;29;1282;-71
2023/04/28 02:38:25;;;;;;;;;;;;;;;;;;;;;
2023/04/28 02:39:07;;;;;;;6.28;3.80;;;;;;;;;;485646;29;1214;-71
2023/04/28 02:39:28;;;;;;;5.82;3.95;;;;;;;;;;489875;29;1248;-72
2023/04/28 02:39:53;;;;;;;6.90;3.90;;;;;;;;;;475773;29;1229;-71
2023/04/28 02:41:06;;;;;;;6.20;3.63;;;;;;;;;;490484;29;1431;-73
2023/04/28 02:42:07;;;;;;;6.55;3.75;;;;;;;;;;473359;29;1740;-71
2023/04/28 02:43:09;;;;;;;6.78;3.70;;;;;;;;;;476672;29;1351;-70
2023/04/28 02:43:40;;;;;;;6.97;3.90;;;;;;;;;;475760;29;2098;-72
2023/04/28 02:43:57;;;;;;;6.22;3.63;;;;;;;;;;472982;29;1262;-71
2023/04/28 02:44:18;;;;;;;7.10;4.10;;;;;;;;;;483523;29;1212;-71
2023/04/28 02:45:14;;;;;;;;;;;;;;;;;;;;;
2023/04/28 02:45:54;;;;;;;6.32;3.80;;;;;;;;;;476400;29;1382;-71
2023/04/28 02:47:35;;;;;;;5.97;3.75;;;;;;;;;;472381;30;1902;-72
2023/04/28 02:48:34;;;;;;;5.45;3.63;;;;;;;;;;467749;30;1645;-70
2023/04/28 02:50:10;;;;;;;6.57;4.05;;;;;;;;;;454467;30;1406;-70
2023/04/28 02:51:09;;;;;;;5.97;4.05;;;;;;;;;;465352;30;1582;-72
2023/04/28 02:54:57;;;;;;;;;;;;;;;;;;;;;
2023/04/28 02:56:20;;;;;;;5.10;3.85;;;;;;;;;;459086;30;1094;-71
2023/04/28 02:57:29;;;;;;;5.97;3.78;;;;;;;;;;461030;30;1292;-71
2023/04/28 03:03:24;;;;;;;6.15;3.90;;;;;;;;;;458613;30;1187;-71
2023/04/28 03:04:03;;;;;;;4.65;3.60;;;;;;;;;;461016;30;1287;-71
2023/04/28 03:04:23;;;;;;;4.10;3.30;;;;;;;;;;465132;30;1264;-71
2023/04/28 03:06:53;;;;;;;5.65;3.95;;;;;;;;;;451182;30;1386;-71
2023/04/28 03:20:17;;;;;;;;;;;;;;;;;;;;;
2023/04/28 03:20:55;;;;;;;;;;;;;;;;;;;;;
2023/04/28 03:21:33;;;;;;;;;;;;;;;;;;;;;
2023/04/28 03:22:58;;;;;;;7.03;5.10;;;;;;;;;;469937;29;1325;-70
2023/04/28 03:23:24;;;;;;;7.90;5.40;;;;;;;;;;468250;30;1285;-71
2023/04/28 03:23:50;;;;;;;7.28;5.18;;;;;;;;;;467492;30;1333;-70
2023/04/28 03:24:07;;;;;;;7.55;5.00;;;;;;;;;;468646;30;1171;-72
2023/04/28 03:24:49;;;;;;;6.20;5.05;;;;;;;;;;471883;29;1195;-70
2023/04/28 03:25:21;;;;;;;;;;;;;;;;;;;;;
2023/04/28 03:26:56;;;;;;;4.78;4.28;;;;;;;;;;469910;29;1154;-71
2023/04/28 03:27:37;;;;;;;4.75;4.18;;;;;;;;;;477415;29;1505;-71
2023/04/28 03:29:08;;;;;;;7.60;5.13;;;;;;;;;;470532;29;884;-71
2023/04/28 03:30:48;;;;;;;6.03;4.55;;;;;;;;;;475996;29;1119;-69
2023/04/28 03:31:10;;;;;;;6.18;4.85;;;;;;;;;;476328;29;1254;-71
2023/04/28 03:31:29;;;;;;;5.85;4.90;;;;;;;;;;470503;29;1259;-72
2023/04/28 03:32:56;;;;;;;6.68;5.13;;;;;;;;;;468178;29;1176;-70
2023/04/28 03:33:30;;;;;;;6.25;4.85;;;;;;;;;;471311;29;1317;-70
2023/04/28 03:34:28;;;;;;;6.80;4.97;;;;;;;;;;474297;29;1276;-70
2023/04/28 03:35:05;;;;;;;5.95;4.72;;;;;;;;;;479188;29;1245;-70
2023/04/28 03:35:49;;;;;;;6.90;4.90;;;;;;;;;;473674;29;1154;-69
2023/04/28 03:36:06;;;;;;;6.80;4.68;;;;;;;;;;474540;29;1382;-71
2023/04/28 03:36:26;;;;;;;8.27;4.78;;;;;;;;;;478909;29;1171;-70
2023/04/28 03:37:05;;;;;;;8.23;4.70;;;;;;;;;;471835;29;1190;-71
2023/04/28 03:37:30;;;;;;;7.38;4.90;;;;;;;;;;476096;29;1364;-70
2023/04/28 03:38:12;;;;;;;9.38;5.28;;;;;;;;;;475433;29;1108;-71
2023/04/28 03:38:36;;;;;;;6.47;5.10;;;;;;;;;;472134;29;1141;-70
2023/04/28 03:38:55;;;;;;;9.15;5.28;;;;;;;;;;473259;29;1370;-71
2023/04/28 03:39:11;;;;;;;7.03;5.05;;;;;;;;;;473266;29;1604;-71
2023/04/28 03:40:10;;;;;;;5.97;4.95;;;;;;;;;;475563;29;1402;-70
2023/04/28 03:40:49;;;;;;;6.80;4.68;;;;;;;;;;470921;29;1252;-71
2023/04/28 03:41:30;;;;;;;7.00;4.97;;;;;;;;;;475476;29;1326;-72
2023/04/28 03:42:08;;;;;;;9.35;5.40;;;;;;;;;;467199;29;1255;-70
2023/04/28 03:43:03;;;;;;;6.78;4.90;;;;;;;;;;471497;29;1471;-71
2023/04/28 03:44:00;;;;;;;;;;;;;;;;;;;;;
2023/04/28 03:44:20;;;;;;;7.72;4.82;;;;;;;;;;476741;29;1274;-72
2023/04/28 03:46:06;;;;;;;7.75;4.80;;;;;;;;;;474511;29;1569;-71
2023/04/28 03:46:55;;;;;;;;;;;;;;;;;;;;;
2023/04/28 03:47:40;;;;;;;5.03;4.28;;;;;;;;;;481889;29;1456;-72
2023/04/28 03:48:32;;;;;;;6.20;4.30;;;;;;;;;;477915;29;1352;-72
2023/04/28 03:49:31;;;;;;;7.15;4.75;;;;;;;;;;465253;29;1402;-71
2023/04/28 03:50:25;;;;;;;6.68;4.95;;;;;;;;;;468771;29;1335;-72
2023/04/28 03:50:49;;;;;;;5.97;4.47;;;;;;;;;;477560;29;1319;-71
2023/04/28 03:51:12;;;;;;;7.50;4.90;;;;;;;;;;474166;29;1513;-71
2023/04/28 03:51:36;;;;;;;8.20;5.10;;;;;;;;;;467962;29;1457;-71
2023/04/28 03:52:21;;;;;;;7.82;5.28;;;;;;;;;;475524;29;1384;-72
2023/04/28 03:52:58;;;;;;;7.13;5.28;;;;;;;;;;469274;29;1274;-72
2023/04/28 03:53:46;;;;;;;8.10;5.05;;;;;;;;;;473414;29;1331;-72
2023/04/28 03:54:14;;;;;;;8.77;5.03;;;;;;;;;;463901;29;1316;-71
2023/04/28 03:55:35;;;;;;;8.05;5.15;;;;;;;;;;466952;29;1452;-72
2023/04/28 03:56:15;;;;;;;8.27;5.25;;;;;;;;;;470543;29;1390;-72
2023/04/28 03:56:54;;;;;;;8.02;5.13;;;;;;;;;;471938;29;1182;-72
2023/04/28 03:57:57;;;;;;;7.60;4.90;;;;;;;;;;475656;29;1210;-72
2023/04/28 03:58:18;;;;;;;7.68;4.82;;;;;;;;;;472774;29;1133;-72
2023/04/28 03:59:25;;;;;;;;;;;;;;;;;;;;;
2023/04/28 03:59:50;;;;;;;9.13;5.43;;;;;;;;;;463939;30;1301;-71
2023/04/28 04:00:07;;;;;;;7.50;5.30;;;;;;;;;;466156;30;1244;-71
2023/04/28 04:02:00;;;;;;;7.45;5.22;;;;;;;;;;467086;29;1274;-71
2023/04/28 04:02:46;;;;;;;7.50;4.90;;;;;;;;;;474438;30;1311;-70
2023/04/28 04:03:11;;;;;;;7.10;5.25;;;;;;;;;;460564;30;1192;-70
2023/04/28 04:04:22;;;;;;;;;;;;;;;;;;;;;
2023/04/28 04:05:34;;;;;;;8.90;5.40;;;;;;;;;;460027;30;1186;-70
2023/04/28 04:06:11;;;;;;;6.25;4.55;;;;;;;;;;456221;30;1741;-70
2023/04/28 04:06:48;;;;;;;6.15;4.47;;;;;;;;;;461760;30;2163;-70
2023/04/28 04:07:11;;;;;;;6.38;4.55;;;;;;;;;;460770;30;1132;-71
2023/04/28 04:07:51;;;;;;;6.55;4.90;;;;;;;;;;466262;30;1246;-71
2023/04/28 04:08:13;;;;;;;6.13;4.72;;;;;;;;;;462360;30;1907;-71
2023/04/28 04:08:46;;;;;;;6.50;5.10;;;;;;;;;;463941;30;1347;-71
2023/04/28 04:09:16;;;;;;;6.22;5.30;;;;;;;;;;460842;29;1126;-71
2023/04/28 04:09:45;;;;;;;;;;;;;;;;;;;;;
2023/04/28 04:10:09;;;;;;;7.68;5.25;;;;;;;;;;470718;29;1168;-71
2023/04/28 04:10:35;;;;;;;5.35;4.82;;;;;;;;;;465084;29;1292;-71
2023/04/28 04:11:18;;;;;;;7.63;5.10;;;;;;;;;;467179;29;1318;-72
2023/04/28 04:11:33;;;;;;;4.88;4.30;;;;;;;;;;462405;29;1404;-71
2023/04/28 04:12:19;;;;;;;5.43;4.35;;;;;;;;;;466420;29;1526;-71
2023/04/28 04:12:49;;;;;;;7.03;4.93;;;;;;;;;;470859;29;1689;-72
2023/04/28 04:14:09;;;;;;;;;;;;;;;;;;;;;
2023/04/28 04:14:32;;;;;;;6.93;5.40;;;;;;;;;;470712;29;1198;-70
2023/04/28 04:14:56;;;;;;;8.85;5.20;;;;;;;;;;467655;29;1249;-71
2023/04/28 04:15:38;;;;;;;;;;;;;;;;;;;;;
2023/04/28 04:16:18;;;;;;;5.93;5.10;;;;;;;;;;468918;29;1052;-71
2023/04/28 04:16:41;;;;;;;6.53;5.00;;;;;;;;;;461030;30;1257;-71
2023/04/28 04:16:57;;;;;;;6.38;5.00;;;;;;;;;;470907;30;1157;-71
2023/04/28 04:17:13;;;;;;;6.22;4.90;;;;;;;;;;474494;30;1295;-70
2023/04/28 04:17:41;;;;;;;5.63;4.70;;;;;;;;;;468511;30;1269;-71
2023/04/28 04:18:04;;;;;;;6.40;5.00;;;;;;;;;;467483;30;1331;-70
2023/04/28 04:18:49;;;;;;;7.03;5.47;;;;;;;;;;468712;30;1324;-71
2023/04/28 04:19:05;;;;;;;6.53;5.05;;;;;;;;;;465049;29;1307;-72
2023/04/28 04:19:25;;;;;;;5.60;4.88;;;;;;;;;;472146;29;1282;-71
2023/04/28 04:20:21;;;;;;;5.35;4.80;;;;;;;;;;474560;29;1344;-70
2023/04/28 04:20:38;;;;;;;6.15;5.15;;;;;;;;;;468756;30;1104;-71
2023/04/28 04:21:03;;;;;;;5.57;5.05;;;;;;;;;;466142;29;1347;-71
2023/04/28 04:21:22;;;;;;;6.20;5.13;;;;;;;;;;473440;29;1390;-70
2023/04/28 04:21:39;;;;;;;5.80;5.20;;;;;;;;;;477837;29;1195;-71
2023/04/28 04:22:15;;;;;;;6.65;5.20;;;;;;;;;;471426;29;1262;-71
2023/04/28 04:23:22;;;;;;;5.88;5.03;;;;;;;;;;477049;29;860;-71
2023/04/28 04:23:38;;;;;;;5.80;4.90;;;;;;;;;;471405;29;1578;-71
2023/04/28 04:24:16;;;;;;;7.10;5.30;;;;;;;;;;473205;29;1272;-72
2023/04/28 04:24:35;;;;;;;7.18;5.50;;;;;;;;;;476242;29;1250;-71
2023/04/28 04:25:03;;;;;;;;;;;;;;;;;;;;;
2023/04/28 04:25:23;;;;;;;7.10;5.20;;;;;;;;;;477927;29;1152;-71